Time;durP1;ratioP1;P1;durP2;ratioP2;P2;SDS_P1;SDS_P2;PMS_P1;PMS_P2;Temp;Humidity;BMP_temperature;BMP_pressure;BME280_temperature;BME280_humidity;BME280_pressure;Samples;Min_cycle;Max_cycle;Signal;HPM_P1;HPM_P2
2022/01/12 00:01:39;;;;;;;;;28.25;23.00;;;;;2.42;84.35;103397.53;5052177;28;46215;-71
2022/01/12 00:04:05;;;;;;;;;29.75;24.75;;;;;2.47;84.36;103392.50;5059739;27;45441;-71
2022/01/12 00:06:30;;;;;;;;;32.50;26.25;;;;;2.63;84.41;103419.84;5063614;28;45678;-71
2022/01/12 00:08:56;;;;;;;;;37.00;28.75;;;;;2.58;84.79;103406.72;5068445;28;45811;-71
2022/01/12 00:11:22;;;;;;;;;36.00;28.75;;;;;2.63;84.30;103401.69;5054322;28;46394;-71
2022/01/12 00:13:51;;;;;;;;;41.25;30.25;;;;;2.75;84.56;103418.53;5057983;28;45986;-71
2022/01/12 00:16:17;;;;;;;;;39.25;25.75;;;;;2.74;84.35;103418.47;5058794;28;45438;-72
2022/01/12 00:18:44;;;;;;;;;52.00;34.00;;;;;2.71;84.10;103419.25;5055204;28;46003;-71
2022/01/12 00:21:09;;;;;;;;;44.50;35.75;;;;;2.66;84.44;103412.16;5057856;28;45298;-70
2022/01/12 00:23:34;;;;;;;;;34.25;28.25;;;;;2.66;84.39;103407.84;5068003;28;45378;-71
2022/01/12 00:26:07;;;;;;;;;39.00;26.50;;;;;2.66;84.37;103407.84;5053399;28;45347;-71
2022/01/12 00:34:05;;;;;;;;;42.75;32.25;;;;;2.69;84.64;103418.34;5057270;28;45548;-71
2022/01/12 00:36:31;;;;;;;;;33.25;28.50;;;;;2.68;84.04;103419.16;5055424;28;45367;-70
2022/01/12 00:38:58;;;;;;;;;37.25;28.00;;;;;2.61;84.49;103417.22;5055887;28;45513;-71
2022/01/12 00:41:23;;;;;;;;;40.25;28.50;;;;;2.66;84.34;103423.41;5054735;28;46475;-71
2022/01/12 00:43:56;;;;;;;;;34.25;26.00;;;;;2.67;84.81;103425.19;5061779;28;45411;-71
2022/01/12 00:46:22;;;;;;;;;40.50;36.25;;;;;2.69;84.76;103430.44;5038025;28;45330;-71
2022/01/12 00:48:47;;;;;;;;;38.00;28.75;;;;;2.69;84.39;103439.09;5053466;28;45502;-71
2022/01/12 00:51:13;;;;;;;;;34.75;27.00;;;;;2.69;84.45;103435.63;5052188;28;46121;-71
2022/01/12 00:53:39;;;;;;;;;41.50;29.25;;;;;2.66;84.59;103428.59;5056219;28;45312;-71
2022/01/12 00:56:06;;;;;;;;;36.00;29.50;;;;;2.67;84.44;103429.50;5053518;28;45498;-71
2022/01/12 00:58:31;;;;;;;;;37.50;28.50;;;;;2.67;84.47;103434.72;5055259;28;45581;-71
2022/01/12 01:00:56;;;;;;;;;35.25;25.50;;;;;2.67;84.28;103430.41;5042463;28;48069;-71
2022/01/12 01:03:22;;;;;;;;;32.67;31.00;;;;;2.62;84.79;103431.97;5052818;28;45469;-71
2022/01/12 01:05:47;;;;;;;;;28.75;24.00;;;;;2.70;84.54;103448.66;5053241;28;45436;-71
2022/01/12 01:08:12;;;;;;;;;36.33;23.67;;;;;2.71;84.24;103449.53;5053183;28;45527;-71
2022/01/12 01:13:09;;;;;;;;;44.75;33.25;;;;;2.65;84.69;103455.41;5052089;28;46058;-71
2022/01/12 01:15:54;;;;;;;;;55.25;27.00;;;;;2.59;84.69;103450.91;5052744;28;45742;-70
2022/01/12 01:26:36;;;;;;;;;50.50;31.00;;;;;2.72;84.94;103469.50;5051999;28;45488;-71
2022/01/12 01:29:03;;;;;;;;;42.50;30.00;;;;;2.73;84.96;103476.44;5053204;28;45661;-71
2022/01/12 01:31:31;;;;;;;;;44.00;32.75;;;;;2.77;84.79;103475.72;5053257;28;46137;-71
2022/01/12 01:34:07;;;;;;;;;31.75;26.75;;;;;2.79;84.75;103481.84;5053156;28;45790;-71
2022/01/12 01:36:35;;;;;;;;;38.00;29.50;;;;;2.83;85.40;103487.19;5052668;28;45573;-71
2022/01/12 01:39:00;;;;;;;;;34.25;31.00;;;;;2.85;85.32;103487.22;5052419;28;45372;-71
2022/01/12 01:41:25;;;;;;;;;42.00;36.50;;;;;2.93;84.85;103500.50;5051776;28;46066;-70
2022/01/12 01:54:52;;;;;;;;;43.25;29.00;;;;;3.06;85.11;103492.25;5034750;28;46052;-71
2022/01/12 01:57:20;;;;;;;;;42.50;31.00;;;;;3.07;84.95;103499.19;5036863;28;45722;-71
2022/01/12 01:59:45;;;;;;;;;43.50;32.75;;;;;3.11;85.16;103512.34;5043790;28;45390;-70
2022/01/12 02:02:12;;;;;;;;;43.50;32.00;;;;;3.07;85.04;103494.88;5020038;28;46032;-71
2022/01/12 02:04:37;;;;;;;;;48.50;34.00;;;;;3.13;84.90;103500.31;5033974;28;45420;-70
2022/01/12 02:07:03;;;;;;;;;45.00;30.50;;;;;3.16;84.67;103509.03;5027046;28;45673;-71
2022/01/12 02:09:28;;;;;;;;;54.25;35.25;;;;;3.18;84.63;103503.03;5044323;28;45450;-70
2022/01/12 02:11:54;;;;;;;;;43.25;34.50;;;;;3.21;84.63;103508.31;5026557;28;46200;-71
2022/01/12 02:14:20;;;;;;;;;38.75;32.50;;;;;3.24;85.05;103516.25;5031192;28;45534;-71
2022/01/12 02:16:53;;;;;;;;;44.00;31.50;;;;;3.24;84.81;103498.03;5031245;28;45403;-70
2022/01/12 02:35:48;;;;;;;;;40.50;28.75;;;;;3.12;84.83;103502.84;5051080;28;45589;-71
2022/01/12 02:40:57;;;;;;;;;44.75;25.25;;;;;3.07;84.57;103494.00;5050018;28;45314;-71
2022/01/12 02:43:39;;;;;;;;;49.25;37.75;;;;;3.02;84.65;103482.59;5051597;28;45934;-71
2022/01/12 02:53:37;;;;;;;;;39.25;30.50;;;;;2.86;84.69;103470.81;5051761;28;45340;-71
2022/01/12 02:54:18;;;;;;;;;43.00;31.75;;;;;2.87;84.97;103478.69;5049114;28;45473;-70
2022/01/12 02:56:44;;;;;;;;;37.50;30.00;;;;;2.83;84.80;103462.94;5051360;28;45573;-71
2022/01/12 02:59:10;;;;;;;;;42.50;33.50;;;;;2.79;84.51;103451.56;5053754;28;46194;-71
2022/01/12 03:04:19;;;;;;;;;40.50;28.00;;;;;2.70;84.95;103447.78;5056915;28;46258;-71
2022/01/12 03:06:45;;;;;;;;;47.50;32.25;;;;;2.66;85.41;103453.69;5055030;28;45534;-71
2022/01/12 03:09:12;;;;;;;;;33.00;25.50;;;;;2.59;84.63;103457.81;5042453;28;45518;-71
2022/01/12 03:11:38;;;;;;;;;42.50;30.00;;;;;2.46;85.24;103448.72;5054483;28;45401;-70
2022/01/12 03:14:03;;;;;;;;;26.75;20.25;;;;;2.42;85.06;103454.63;5052682;28;47554;-71
2022/01/12 03:16:29;;;;;;;;;36.75;22.75;;;;;2.34;85.23;103445.69;5056821;28;45458;-71
2022/01/12 03:18:56;;;;;;;;;34.75;19.75;;;;;2.46;85.83;103471.22;5054900;28;45589;-70
2022/01/12 03:21:25;;;;;;;;;49.25;27.50;;;;;2.48;85.92;103472.13;5055287;28;45599;-71
2022/01/12 03:23:51;;;;;;;;;38.50;30.25;;;;;2.48;86.02;103467.81;5055140;28;45553;-71
2022/01/12 03:26:18;;;;;;;;;28.00;23.50;;;;;2.48;85.59;103467.81;5053215;28;45850;-70
2022/01/12 03:28:51;;;;;;;;;38.75;29.00;;;;;2.58;85.78;103482.00;5056527;28;45439;-71
2022/01/12 03:31:20;;;;;;;;;43.25;26.00;;;;;2.53;85.57;103479.25;5055745;28;45468;-71
2022/01/12 03:38:37;;;;;;;;;32.00;25.75;;;;;2.64;85.61;103492.59;5054624;28;45442;-71
2022/01/12 03:41:03;;;;;;;;;50.25;23.75;;;;;2.70;85.97;103490.19;5053421;28;45309;-71
2022/01/12 03:43:28;;;;;;;;;33.00;26.75;;;;;2.75;86.04;103490.34;5056270;28;45795;-71
2022/01/12 03:45:53;;;;;;;;;37.33;27.67;;;;;2.70;85.60;103482.41;5054198;28;45460;-71
2022/01/12 03:48:19;;;;;;;;;35.25;25.25;;;;;2.79;85.44;103500.03;5054163;28;45346;-71
2022/01/12 03:50:45;;;;;;;;;29.00;22.50;;;;;2.76;85.61;103499.91;5054536;28;45611;-70
2022/01/12 03:53:11;;;;;;;;;33.50;23.75;;;;;2.75;86.06;103500.75;5043853;28;47180;-71
2022/01/12 03:55:37;;;;;;;;;33.75;26.50;;;;;2.74;85.95;103494.66;5056069;28;45365;-71
2022/01/12 03:58:02;;;;;;;;;39.00;25.00;;;;;2.71;85.53;103494.56;5053505;28;45522;-71
2022/01/12 04:00:27;;;;;;;;;36.25;26.00;;;;;2.59;85.85;103488.94;5054322;28;45282;-70
2022/01/12 04:02:53;;;;;;;;;34.33;22.00;;;;;2.63;85.76;103501.22;5053694;28;45551;-70
2022/01/12 04:08:18;;;;;;;;;30.75;22.50;;;;;2.64;85.98;103504.69;5054041;28;45295;-70
2022/01/12 04:08:19;;;;;;;;;35.00;25.25;;;;;2.67;85.99;103518.69;5036990;28;45394;-70
2022/01/12 04:11:06;;;;;;;;;26.50;21.00;;;;;2.71;85.94;103520.50;5052566;28;45333;-70
2022/01/12 04:13:32;;;;;;;;;37.00;25.75;;;;;2.56;85.74;103494.94;5053698;28;45358;-70
2022/01/12 04:16:06;;;;;;;;;26.75;23.00;;;;;2.78;85.60;103530.31;5053626;28;45299;-70
2022/01/12 04:18:33;;;;;;;;;42.50;23.25;;;;;2.80;85.74;103536.41;5061108;28;45480;-71
2022/01/12 04:21:01;;;;;;;;;30.75;25.50;;;;;2.82;85.66;103544.28;5051772;28;45481;-70
2022/01/12 04:23:27;;;;;;;;;31.00;23.50;;;;;2.81;85.05;103551.16;5053293;28;46272;-71
2022/01/12 04:25:56;;;;;;;;;29.25;22.50;;;;;2.83;85.13;103546.94;5054841;28;45322;-70
2022/01/12 04:28:23;;;;;;;;;30.50;24.25;;;;;2.86;85.66;103547.00;5055581;28;45395;-70
2022/01/12 04:30:51;;;;;;;;;29.25;22.50;;;;;2.81;85.14;103535.59;5053361;28;45261;-70
2022/01/12 04:33:17;;;;;;;;;33.50;26.25;;;;;2.83;85.17;103530.47;5053454;28;46042;-70
2022/01/12 04:35:50;;;;;;;;;35.75;22.00;;;;;2.90;85.08;103541.94;5053709;28;45962;-70
2022/01/12 04:38:18;;;;;;;;;33.25;22.25;;;;;2.92;85.11;103548.94;5036431;28;45478;-71
2022/01/12 04:40:44;;;;;;;;;40.00;19.50;;;;;2.96;84.90;103549.94;5055759;28;45365;-70
2022/01/12 04:43:10;;;;;;;;;27.25;25.75;;;;;2.96;85.27;103555.13;5043868;28;46127;-71
2022/01/12 04:50:48;;;;;;;;;36.50;26.25;;;;;3.00;85.09;103570.88;5055987;28;45319;-71
2022/01/12 04:53:14;;;;;;;;;35.00;23.25;;;;;3.02;85.09;103566.59;5052864;28;45577;-71
2022/01/12 04:55:41;;;;;;;;;28.25;22.50;;;;;3.03;84.96;103565.78;5050966;28;45491;-71
2022/01/12 04:58:08;;;;;;;;;34.50;26.25;;;;;3.02;85.04;103578.69;5054407;28;45469;-70
2022/01/12 05:00:36;;;;;;;;;31.75;22.50;;;;;3.04;85.12;103574.47;5053409;28;45511;-70
2022/01/12 05:13:50;;;;;;;;;35.50;26.00;;;;;3.00;84.76;103578.66;5054375;28;45827;-71
2022/01/12 05:16:15;;;;;;;;;39.25;25.75;;;;;2.98;84.96;103588.13;5054734;28;45872;-71
2022/01/12 05:18:43;;;;;;;;;39.50;25.25;;;;;2.98;84.90;103589.84;5059917;28;45513;-70
2022/01/12 05:21:09;;;;;;;;;39.75;30.75;;;;;2.99;85.12;103583.81;5055901;28;45474;-71
2022/01/12 05:23:35;;;;;;;;;28.25;22.50;;;;;3.00;85.09;103581.25;5052291;28;45441;-70
2022/01/12 05:26:01;;;;;;;;;32.50;29.50;;;;;2.96;85.15;103571.59;5053947;28;45320;-71
2022/01/12 05:28:27;;;;;;;;;35.50;29.25;;;;;3.04;85.27;103590.94;5055133;28;45466;-71
2022/01/12 05:30:54;;;;;;;;;40.50;30.25;;;;;3.07;85.42;103582.34;5052909;28;45547;-71
2022/01/12 05:33:23;;;;;;;;;38.75;26.25;;;;;3.08;85.20;103579.81;5052701;28;45553;-71
2022/01/12 05:35:49;;;;;;;;;38.50;29.50;;;;;3.10;84.96;103566.88;5052208;28;45463;-71
2022/01/12 05:38:15;;;;;;;;;32.25;27.25;;;;;3.08;84.90;103572.03;5052028;28;45368;-71
2022/01/12 05:40:45;;;;;;;;;42.25;31.00;;;;;3.09;85.06;103563.38;5050425;28;45691;-71
2022/01/12 05:43:10;;;;;;;;;35.00;27.75;;;;;3.09;85.07;103566.00;5051386;28;46248;-71
2022/01/12 05:45:39;;;;;;;;;42.75;29.00;;;;;3.03;85.07;103549.31;5053548;28;45577;-71
2022/01/12 05:50:37;;;;;;;;;48.75;37.50;;;;;3.14;85.04;103573.94;5054036;28;45443;-71
2022/01/12 05:53:03;;;;;;;;;40.25;33.00;;;;;3.14;85.35;103566.16;5050296;28;45413;-71
2022/01/12 05:55:28;;;;;;;;;40.50;31.50;;;;;3.13;85.51;103573.06;5054356;28;45432;-70
2022/01/12 05:57:54;;;;;;;;;36.75;31.00;;;;;3.08;85.40;103560.72;5051546;28;45510;-71
2022/01/12 06:00:21;;;;;;;;;48.00;35.75;;;;;3.16;85.33;103569.66;5052236;28;45605;-71
2022/01/12 06:02:46;;;;;;;;;48.75;39.00;;;;;3.14;85.44;103573.94;5050277;28;47646;-70
2022/01/12 06:05:14;;;;;;;;;58.25;42.75;;;;;3.13;85.60;103585.13;5038111;28;47744;-70
2022/01/12 06:07:43;;;;;;;;;41.75;31.75;;;;;3.08;85.40;103579.81;5043358;28;45527;-70
2022/01/12 06:10:09;;;;;;;;;54.00;38.50;;;;;3.11;85.39;103592.00;5053255;28;46712;-70
2022/01/12 06:12:35;;;;;;;;;42.00;24.25;;;;;3.06;85.00;103585.78;5054669;28;45589;-70
2022/01/12 06:15:00;;;;;;;;;38.75;28.00;;;;;2.99;85.10;103579.50;5052538;28;45411;-70
2022/01/12 06:17:25;;;;;;;;;37.25;26.00;;;;;2.99;85.12;103587.28;5052852;28;45436;-70
2022/01/12 06:19:51;;;;;;;;;45.00;30.75;;;;;2.94;85.54;103575.84;5065781;28;45515;-70
2022/01/12 06:22:16;;;;;;;;;39.50;27.75;;;;;2.94;85.46;103587.97;5052526;28;45374;-70
2022/01/12 06:24:42;;;;;;;;;47.50;32.50;;;;;2.93;85.47;103586.22;5050844;28;45577;-71
2022/01/12 06:27:09;;;;;;;;;42.25;28.75;;;;;2.90;85.30;103576.59;5052604;28;45692;-70
2022/01/12 06:29:51;;;;;;;;;36.50;31.50;;;;;2.83;85.80;103578.09;5052030;28;45563;-70
2022/01/12 06:32:17;;;;;;;;;37.00;23.00;;;;;2.81;85.84;103587.53;5052112;28;45466;-70
2022/01/12 06:34:42;;;;;;;;;41.75;33.25;;;;;2.75;85.62;103581.25;5060991;28;46671;-71
2022/01/12 06:37:07;;;;;;;;;43.75;30.50;;;;;2.70;85.69;103570.69;5055849;28;45661;-70
2022/01/12 06:39:33;;;;;;;;;35.75;23.75;;;;;2.70;86.06;103573.28;5055427;28;45771;-70
2022/01/12 06:41:59;;;;;;;;;35.25;29.00;;;;;2.76;85.97;103580.41;5058124;28;46332;-71
2022/01/12 06:44:28;;;;;;;;;37.25;28.50;;;;;2.76;86.00;103599.47;5056596;28;46072;-70
2022/01/12 06:46:55;;;;;;;;;31.00;24.00;;;;;2.77;85.69;103602.97;5059628;28;45490;-70
2022/01/12 06:49:21;;;;;;;;;32.75;29.25;;;;;2.74;85.59;103598.53;5056429;28;45502;-70
2022/01/12 06:51:46;;;;;;;;;42.67;33.00;;;;;2.63;85.80;103589.50;5054711;28;51271;-70
2022/01/12 06:54:14;;;;;;;;;32.75;29.00;;;;;2.65;85.67;103600.81;5054575;28;45605;-70
2022/01/12 06:56:39;;;;;;;;;29.00;22.75;;;;;2.60;85.60;103604.94;5049533;28;45620;-70
2022/01/12 06:59:05;;;;;;;;;32.50;25.00;;;;;2.56;85.68;103603.09;5053894;28;45621;-70
2022/01/12 07:01:32;;;;;;;;;34.25;24.50;;;;;2.55;85.46;103607.38;5043924;28;45736;-70
2022/01/12 07:03:58;;;;;;;;;34.25;27.00;;;;;2.45;85.68;103592.28;5042515;28;45978;-70
2022/01/12 07:06:23;;;;;;;;;29.75;23.75;;;;;2.53;85.73;103598.66;5049638;28;45447;-71
2022/01/12 07:08:49;;;;;;;;;32.00;27.75;;;;;2.31;85.96;103558.06;5056858;28;45376;-70
2022/01/12 07:11:14;;;;;;;;;32.50;24.75;;;;;2.52;85.96;103589.09;5055389;28;46263;-69
2022/01/12 07:13:40;;;;;;;;;37.50;28.00;;;;;2.52;85.77;103590.81;5052438;28;45978;-71
2022/01/12 07:16:05;;;;;;;;;30.00;24.00;;;;;2.51;85.74;103595.13;5045097;28;45729;-71
2022/01/12 07:18:30;;;;;;;;;42.50;26.25;;;;;2.51;85.96;103589.94;5043065;28;45421;-71
2022/01/12 07:20:57;;;;;;;;;35.25;23.50;;;;;2.52;86.14;103589.09;5059693;28;46027;-71
2022/01/12 07:23:23;;;;;;;;;31.50;24.75;;;;;2.49;86.08;103573.41;5057177;28;45565;-71
2022/01/12 07:25:49;;;;;;;;;47.25;29.75;;;;;2.45;85.88;103563.75;5040524;28;45424;-71
2022/01/12 07:28:14;;;;;;;;;33.00;27.75;;;;;2.55;86.03;103583.13;5050835;28;45425;-71
2022/01/12 07:30:40;;;;;;;;;34.50;27.00;;;;;2.52;86.47;103570.06;5044803;28;46273;-71
2022/01/12 07:33:05;;;;;;;;;33.75;27.50;;;;;2.57;86.49;103587.56;5046365;28;46357;-71
2022/01/12 07:35:31;;;;;;;;;38.33;28.00;;;;;2.53;86.59;103590.00;5039631;28;47897;-71
2022/01/12 07:37:56;;;;;;;;;34.50;27.50;;;;;2.53;86.16;103592.59;5038592;28;45446;-71
2022/01/12 07:40:21;;;;;;;;;39.75;28.00;;;;;2.62;86.43;103618.88;5051350;28;45586;-71
2022/01/12 07:42:47;;;;;;;;;42.00;31.00;;;;;2.65;86.15;103618.09;5044398;28;45443;-71
2022/01/12 07:45:13;;;;;;;;;29.25;25.00;;;;;2.59;86.34;103601.47;5040535;28;45296;-72
2022/01/12 07:47:38;;;;;;;;;32.50;26.50;;;;;2.68;86.33;103616.50;5038379;28;45331;-71
2022/01/12 07:50:05;;;;;;;;;39.00;27.25;;;;;2.75;86.20;103634.06;5052656;28;45379;-72
2022/01/12 07:52:31;;;;;;;;;36.00;27.75;;;;;2.75;85.98;103638.38;5051014;28;45418;-72
2022/01/12 07:54:57;;;;;;;;;41.50;29.75;;;;;2.72;85.77;103633.09;5041628;28;45458;-71
2022/01/12 07:57:23;;;;;;;;;40.00;32.00;;;;;2.73;85.82;103632.25;5042755;28;45551;-71
2022/01/12 07:59:48;;;;;;;;;49.25;32.00;;;;;2.80;86.23;103648.09;5038789;28;46286;-72
2022/01/12 08:02:13;;;;;;;;;49.25;32.25;;;;;2.81;85.67;103646.38;5039546;28;45364;-71
2022/01/12 08:04:39;;;;;;;;;43.50;30.00;;;;;2.74;85.76;103640.09;5051759;28;45351;-71
2022/01/12 08:07:06;;;;;;;;;41.75;28.25;;;;;2.78;85.79;103647.16;5046549;28;45472;-71
2022/01/12 08:09:31;;;;;;;;;40.25;29.25;;;;;2.78;85.80;103649.75;5047062;28;46185;-71
2022/01/12 08:11:57;;;;;;;;;36.50;30.75;;;;;2.78;85.88;103644.56;5040484;28;45855;-71
2022/01/12 08:14:22;;;;;;;;;44.25;26.25;;;;;2.76;85.83;103643.63;5066124;28;45737;-72
2022/01/12 08:16:47;;;;;;;;;47.50;37.25;;;;;2.82;86.02;103654.25;5039432;28;45522;-71
2022/01/12 08:19:17;;;;;;;;;72.25;51.50;;;;;2.91;85.96;103661.47;5020952;28;48581;-72
2022/01/12 08:21:42;;;;;;;;;78.00;52.25;;;;;2.96;86.04;103669.41;5048844;28;45972;-72
2022/01/12 08:24:09;;;;;;;;;120.00;99.50;;;;;3.01;86.26;103684.34;5045083;28;45748;-72
2022/01/12 08:26:35;;;;;;;;;92.50;69.50;;;;;3.07;86.25;103692.34;5043577;28;45404;-72
2022/01/12 08:29:01;;;;;;;;;100.50;76.00;;;;;3.06;85.90;103676.72;5045459;28;46131;-72
2022/01/12 08:31:26;;;;;;;;;82.00;58.00;;;;;3.18;85.87;103695.31;5041910;28;45475;-72
2022/01/12 08:33:51;;;;;;;;;57.33;43.33;;;;;3.24;86.31;103702.47;5054808;28;45442;-71
2022/01/12 08:36:17;;;;;;;;;40.67;32.00;;;;;3.14;85.72;103683.06;5049703;28;53337;-72
2022/01/12 08:38:42;;;;;;;;;109.67;86.00;;;;;3.33;85.97;103702.78;5041562;28;47120;-72
2022/01/12 08:41:08;;;;;;;;;103.00;75.25;;;;;3.34;85.71;103697.66;5041676;28;45408;-72
2022/01/12 08:43:34;;;;;;;;;103.50;77.00;;;;;3.43;85.61;103696.19;5054193;28;45502;-72
2022/01/12 08:45:59;;;;;;;;;77.00;57.50;;;;;3.50;85.85;103713.75;5054485;28;45495;-71
2022/01/12 08:48:24;;;;;;;;;66.25;45.75;;;;;3.52;85.36;103710.38;5049275;28;46877;-71
2022/01/12 08:50:50;;;;;;;;;39.50;31.50;;;;;3.49;85.32;103710.25;5050692;28;45421;-71
2022/01/12 08:53:16;;;;;;;;;60.50;34.75;;;;;3.62;84.77;103727.19;5036703;28;45316;-71
2022/01/12 08:55:41;;;;;;;;;38.00;30.25;;;;;3.58;84.90;103720.97;5038756;28;45473;-71
2022/01/12 08:58:07;;;;;;;;;50.25;33.25;;;;;3.59;84.72;103719.25;5039586;28;45420;-71
2022/01/12 09:00:32;;;;;;;;;46.75;33.00;;;;;3.60;84.55;103716.72;5040156;28;45344;-71
2022/01/12 09:02:58;;;;;;;;;50.00;39.50;;;;;3.68;84.35;103732.56;5040453;28;45485;-71
2022/01/12 09:05:23;;;;;;;;;42.50;34.75;;;;;3.69;84.37;103731.75;5037213;28;45360;-71
2022/01/12 09:07:49;;;;;;;;;46.50;35.75;;;;;3.72;84.55;103739.66;5039099;28;45721;-71
2022/01/12 09:10:15;;;;;;;;;47.75;36.25;;;;;3.76;84.57;103722.41;5039321;28;45522;-71
2022/01/12 09:12:40;;;;;;;;;47.50;32.75;;;;;3.85;84.17;103738.34;5029206;28;45644;-71
2022/01/12 09:15:07;;;;;;;;;52.75;38.00;;;;;3.91;84.10;103747.25;5053760;28;45306;-71
2022/01/12 09:17:33;;;;;;;;;41.75;35.25;;;;;3.91;84.21;103752.44;5046409;28;47481;-71
2022/01/12 09:19:58;;;;;;;;;49.25;38.00;;;;;3.97;84.19;103758.66;5052258;28;45637;-71
2022/01/12 09:22:24;;;;;;;;;49.50;38.00;;;;;4.02;83.70;103764.91;5059004;28;45285;-71
2022/01/12 09:24:49;;;;;;;;;48.25;35.25;;;;;3.98;83.28;103753.53;5051952;28;45697;-71
2022/01/12 09:27:17;;;;;;;;;40.00;34.00;;;;;4.04;83.68;103778.88;5046565;28;45735;-71
2022/01/12 09:29:43;;;;;;;;;51.00;42.75;;;;;4.04;83.30;103779.75;5040571;28;45951;-71
2022/01/12 09:32:08;;;;;;;;;48.00;41.00;;;;;4.05;83.31;103785.84;5047854;28;45507;-71
2022/01/12 09:34:34;;;;;;;;;54.25;42.25;;;;;4.11;83.58;103791.22;5039499;28;45400;-71
2022/01/12 09:37:00;;;;;;;;;46.75;38.00;;;;;4.15;83.16;103791.38;5047686;28;45951;-71
2022/01/12 09:39:25;;;;;;;;;53.00;40.50;;;;;4.24;83.46;103796.03;5048419;28;45516;-70
2022/01/12 09:41:50;;;;;;;;;52.00;41.00;;;;;4.35;83.51;103794.63;5054745;28;45576;-70
2022/01/12 09:44:17;;;;;;;;;54.25;44.50;;;;;4.41;83.37;103789.63;5051109;28;45423;-71
2022/01/12 09:46:42;;;;;;;;;54.25;39.75;;;;;4.55;83.15;103812.63;5054988;28;47094;-71
2022/01/12 09:49:08;;;;;;;;;49.75;41.25;;;;;4.48;82.26;103802.81;5039556;28;45411;-71
2022/01/12 09:51:33;;;;;;;;;49.75;41.00;;;;;4.53;82.10;103820.38;5027605;28;45342;-71
2022/01/12 09:53:59;;;;;;;;;63.00;44.50;;;;;4.45;81.80;103811.44;5049180;28;45352;-70
2022/01/12 09:56:28;;;;;;;;;53.25;41.75;;;;;4.52;81.99;103817.72;5017978;28;47167;-71
2022/01/12 09:58:55;;;;;;;;;49.50;39.00;;;;;4.56;82.80;103827.41;5054795;28;45256;-71
2022/01/12 10:01:29;;;;;;;;;50.00;38.75;;;;;4.61;82.12;103816.28;5039264;28;45312;-71
2022/01/12 10:04:16;;;;;;;;;51.50;44.25;;;;;4.71;81.96;103820.06;5039605;28;45485;-71
2022/01/12 10:06:45;;;;;;;;;50.75;39.50;;;;;4.79;82.30;103815.97;5039158;28;45537;-71
2022/01/12 10:09:12;;;;;;;;;55.25;42.75;;;;;4.89;81.50;103815.41;5044921;28;45330;-71
2022/01/12 10:11:56;;;;;;;;;55.25;45.00;;;;;4.97;81.69;103813.91;5052690;28;45706;-71
2022/01/12 10:14:24;;;;;;;;;44.75;41.50;;;;;4.90;81.49;103783.28;5039353;28;45687;-71
2022/01/12 10:16:58;;;;;;;;;52.25;40.75;;;;;5.24;81.12;103807.72;5040852;28;46441;-70
2022/01/12 10:19:29;;;;;;;;;61.00;42.50;;;;;5.52;81.24;103809.38;5051943;28;45399;-70
2022/01/12 10:21:56;;;;;;;;;47.00;41.50;;;;;5.66;80.38;103791.50;5044704;28;45494;-71
2022/01/12 10:24:22;;;;;;;;;62.25;46.25;;;;;5.88;80.18;103801.63;5044897;28;45443;-71
2022/01/12 10:26:48;;;;;;;;;52.25;41.50;;;;;6.08;79.32;103801.28;5053711;28;45414;-70
2022/01/12 10:29:17;;;;;;;;;54.25;43.50;;;;;6.18;78.96;103805.91;5038250;28;45438;-70
2022/01/12 10:31:48;;;;;;;;;53.50;42.25;;;;;6.26;78.46;103800.03;5057884;28;45436;-71
2022/01/12 10:34:15;;;;;;;;;52.50;43.75;;;;;6.34;78.40;103784.53;5062264;28;45457;-71
2022/01/12 10:36:42;;;;;;;;;55.00;43.50;;;;;6.46;77.94;103784.78;5059748;28;46372;-71
2022/01/12 10:39:11;;;;;;;;;55.75;42.25;;;;;6.70;77.69;103804.50;5051254;28;45984;-71
2022/01/12 10:41:50;;;;;;;;;59.50;46.00;;;;;6.71;77.18;103793.19;5054066;28;45475;-71
2022/01/12 10:44:24;;;;;;;;;58.50;47.75;;;;;6.72;77.04;103802.78;5037962;28;45543;-71
2022/01/12 10:47:01;;;;;;;;;44.75;38.25;;;;;6.70;76.95;103801.88;5047098;28;45420;-71
2022/01/12 10:49:26;;;;;;;;;54.75;44.50;;;;;6.67;76.73;103801.81;5037578;28;45506;-71
2022/01/12 10:51:56;;;;;;;;;63.33;49.00;;;;;6.70;76.70;103802.78;5042229;28;45733;-71
2022/01/12 10:54:21;;;;;;;;;56.75;43.00;;;;;6.64;76.21;103791.31;5046347;28;45417;-73
2022/01/12 10:56:47;;;;;;;;;62.75;47.00;;;;;6.72;76.36;103794.94;5053135;28;47024;-72
2022/01/12 10:59:20;;;;;;;;;61.25;46.50;;;;;6.72;76.33;103802.78;5037311;28;45496;-72
2022/01/12 11:01:46;;;;;;;;;70.50;49.25;;;;;6.75;76.33;103808.97;5053524;28;45520;-74
2022/01/12 11:04:12;;;;;;;;;63.00;45.00;;;;;6.82;76.23;103804.75;5049037;28;45474;-72
2022/01/12 11:06:38;;;;;;;;;59.25;44.75;;;;;6.89;75.96;103800.53;5045719;28;45488;-72
2022/01/12 11:09:04;;;;;;;;;58.50;39.75;;;;;6.97;75.91;103804.22;5046479;28;45527;-72
2022/01/12 11:11:30;;;;;;;;;62.25;46.00;;;;;7.03;75.82;103810.44;5055306;28;45425;-72
2022/01/12 11:13:56;;;;;;;;;66.00;47.00;;;;;7.07;75.26;103809.66;5034562;28;45681;-72
2022/01/12 11:16:24;;;;;;;;;60.25;46.25;;;;;7.10;75.49;103807.94;5052747;28;46217;-72
2022/01/12 11:18:52;;;;;;;;;60.25;42.75;;;;;7.07;75.32;103804.44;5043500;28;47712;-71
2022/01/12 11:21:20;;;;;;;;;74.75;48.75;;;;;7.13;75.56;103808.03;5027680;28;45872;-72
2022/01/12 11:23:46;;;;;;;;;65.00;45.75;;;;;7.10;74.96;103801.03;5049892;28;45678;-72
2022/01/12 11:26:25;;;;;;;;;64.25;47.75;;;;;7.14;75.54;103805.44;5054489;28;46125;-72
2022/01/12 11:28:52;;;;;;;;;61.75;45.25;;;;;7.05;75.05;103797.44;5053684;28;45889;-72
2022/01/12 11:31:26;;;;;;;;;55.75;43.50;;;;;7.01;75.29;103793.84;5050852;28;45586;-71
2022/01/12 11:33:51;;;;;;;;;59.25;45.50;;;;;6.96;75.37;103798.09;5043807;28;45516;-72
2022/01/12 11:36:17;;;;;;;;;63.75;47.75;;;;;6.98;75.22;103795.50;5041065;28;45538;-72
2022/01/12 11:38:47;;;;;;;;;68.67;47.33;;;;;7.01;75.20;103798.22;5045164;28;45506;-72
2022/01/12 11:41:23;;;;;;;;;61.00;48.50;;;;;7.05;75.29;103795.69;5052911;28;45430;-72
2022/01/12 11:43:50;;;;;;;;;60.75;44.00;;;;;7.04;74.83;103791.28;5052315;28;45564;-72
2022/01/12 11:46:21;;;;;;;;;61.50;45.00;;;;;6.95;75.10;103779.78;5049941;28;45459;-71
2022/01/12 11:48:53;;;;;;;;;63.50;44.50;;;;;6.98;74.84;103783.31;5051621;28;45516;-72
2022/01/12 11:51:41;;;;;;;;;67.75;45.50;;;;;7.03;74.83;103789.53;5056355;28;45557;-71
2022/01/12 11:54:12;;;;;;;;;61.00;45.00;;;;;6.77;74.67;103733.22;5041235;28;45529;-71
2022/01/12 11:56:51;;;;;;;;;67.75;49.50;;;;;7.07;75.31;103764.34;5039523;28;45586;-72
2022/01/12 11:59:16;;;;;;;;;62.50;48.25;;;;;7.17;74.92;103757.56;5050458;28;45960;-71
2022/01/12 12:02:06;;;;;;;;;61.50;47.25;;;;;7.33;75.11;103763.09;5048888;28;45421;-71
2022/01/12 12:04:33;;;;;;;;;63.50;44.75;;;;;7.32;74.48;103753.50;5051969;28;45534;-71
2022/01/12 12:07:04;;;;;;;;;55.75;46.25;;;;;7.50;74.62;103767.75;5043716;28;45695;-71
2022/01/12 12:09:37;;;;;;;;;57.50;47.00;;;;;7.61;74.49;103765.34;5044902;28;46009;-71
2022/01/12 12:12:10;;;;;;;;;64.50;45.75;;;;;7.73;74.51;103763.84;5044806;28;45538;-71
2022/01/12 12:14:35;;;;;;;;;68.00;48.25;;;;;7.74;73.62;103754.25;5046527;28;45539;-71
2022/01/12 12:17:02;;;;;;;;;66.75;48.25;;;;;7.89;73.64;103779.81;5048001;28;47685;-71
2022/01/12 12:19:28;;;;;;;;;56.50;44.75;;;;;7.95;73.71;103778.16;5046796;28;45509;-71
2022/01/12 12:21:53;;;;;;;;;64.00;46.50;;;;;7.99;73.54;103772.13;5043341;28;54912;-71
2022/01/12 12:24:18;;;;;;;;;59.00;47.00;;;;;7.89;73.26;103746.66;5040766;28;45682;-72
2022/01/12 12:26:45;;;;;;;;;63.50;46.50;;;;;8.00;73.00;103763.41;5047283;28;45415;-72
2022/01/12 12:29:13;;;;;;;;;62.75;43.75;;;;;7.93;73.22;103752.78;5042303;28;46238;-72
2022/01/12 12:31:38;;;;;;;;;62.00;41.25;;;;;7.95;73.36;103759.84;5045243;28;45449;-72
2022/01/12 12:34:05;;;;;;;;;63.25;47.25;;;;;7.93;72.76;103751.06;5053536;28;45832;-72
2022/01/12 12:36:32;;;;;;;;;64.25;48.25;;;;;7.90;73.03;103724.84;5053497;28;48056;-72